Time;durP1;ratioP1;P1;durP2;ratioP2;P2;SDS_P1;SDS_P2;PMS_P1;PMS_P2;Temp;Humidity;BMP_temperature;BMP_pressure;BME280_temperature;BME280_humidity;BME280_pressure;Samples;Min_cycle;Max_cycle;Signal;HPM_P1;HPM_P2
2021/06/22 00:00:41;;;;;;;24.13;8.43;;;23.90;68.50;;;;;;5100852;28;20021;-91
2021/06/22 00:03:07;;;;;;;;;;;23.80;68.80;;;;;;5101476;28;20037;-90
2021/06/22 00:05:35;;;;;;;16.65;8.73;;;23.80;68.00;;;;;;5095253;28;19931;-91
2021/06/22 00:08:01;;;;;;;16.67;8.30;;;23.80;69.10;;;;;;5065117;28;20074;-91
2021/06/22 00:10:30;;;;;;;17.63;8.80;;;23.70;69.40;;;;;;5066245;28;20032;-90
2021/06/22 00:12:57;;;;;;;18.95;9.35;;;23.70;69.80;;;;;;5052745;28;20021;-90
2021/06/22 00:15:24;;;;;;;23.98;9.60;;;23.70;70.00;;;;;;5066338;28;20024;-90
2021/06/22 00:17:51;;;;;;;18.13;8.98;;;23.70;70.10;;;;;;5077532;28;20017;-90
2021/06/22 00:20:18;;;;;;;18.33;9.40;;;23.70;70.10;;;;;;5058724;28;20028;-91
2021/06/22 00:22:44;;;;;;;22.20;9.40;;;23.70;70.40;;;;;;5055465;28;20039;-91
2021/06/22 00:25:13;;;;;;;31.33;8.95;;;23.70;70.50;;;;;;5093714;28;20031;-89
2021/06/22 00:27:39;;;;;;;29.02;9.13;;;23.60;70.70;;;;;;5077554;28;20020;-89
2021/06/22 00:30:06;;;;;;;17.63;8.82;;;23.60;70.80;;;;;;5070496;28;20027;-88
2021/06/22 00:32:32;;;;;;;21.67;9.40;;;23.60;70.90;;;;;;5087301;28;20048;-90
2021/06/22 00:34:58;;;;;;;28.10;10.10;;;23.60;71.30;;;;;;5046865;28;20382;-89
2021/06/22 00:37:24;;;;;;;24.50;9.68;;;23.60;71.70;;;;;;5062081;28;20029;-90
2021/06/22 00:39:50;;;;;;;24.38;10.23;;;23.60;71.80;;;;;;5095547;28;20025;-91
2021/06/22 00:42:17;;;;;;;25.42;9.68;;;23.50;71.90;;;;;;5099963;28;20048;-93
2021/06/22 00:44:57;;;;;;;27.75;11.43;;;23.50;72.00;;;;;;5081544;28;20020;-92
2021/06/22 00:47:26;;;;;;;24.92;10.07;;;23.40;71.90;;;;;;5093323;28;20088;-91
2021/06/22 00:49:52;;;;;;;27.73;9.75;;;23.50;72.10;;;;;;5068085;28;20013;-92
2021/06/22 00:52:27;;;;;;;27.42;10.93;;;23.40;72.10;;;;;;5077266;28;20035;-92
2021/06/22 00:54:55;;;;;;;29.20;11.10;;;23.40;72.30;;;;;;5091606;28;20016;-91
2021/06/22 00:57:23;;;;;;;28.48;10.85;;;23.40;72.50;;;;;;5097629;28;20040;-90
2021/06/22 00:59:51;;;;;;;25.90;11.80;;;23.40;71.80;;;;;;5082406;28;20089;-92
2021/06/22 01:02:18;;;;;;;27.55;10.77;;;23.40;72.40;;;;;;5073046;28;20132;-91
2021/06/22 01:04:49;;;;;;;30.92;11.65;;;23.40;72.50;;;;;;5084670;28;20029;-92
2021/06/22 01:07:15;;;;;;;30.88;11.32;;;23.40;72.50;;;;;;5098067;28;20040;-87
2021/06/22 01:09:42;;;;;;;36.55;10.25;;;23.40;72.70;;;;;;5071852;28;20028;-91
2021/06/22 01:12:08;;;;;;;29.42;10.80;;;23.40;72.80;;;;;;5052513;28;20037;-92
2021/06/22 01:14:42;;;;;;;30.52;11.25;;;23.40;73.10;;;;;;5074526;28;20081;-93
2021/06/22 01:17:08;;;;;;;33.50;12.10;;;23.30;72.80;;;;;;5067950;28;20082;-90
2021/06/22 01:19:35;;;;;;;27.85;12.05;;;23.30;73.10;;;;;;5079943;28;20104;-90
2021/06/22 01:22:00;;;;;;;26.85;10.38;;;23.40;73.10;;;;;;5078816;28;20032;-88
2021/06/22 01:24:26;;;;;;;31.08;11.80;;;23.40;73.20;;;;;;5087593;28;20027;-87
2021/06/22 01:26:58;;;;;;;24.75;11.60;;;23.40;73.30;;;;;;5087211;28;20028;-89
2021/06/22 01:29:24;;;;;;;28.23;12.02;;;23.40;73.40;;;;;;5083732;28;20017;-87
2021/06/22 01:31:52;;;;;;;31.00;11.98;;;23.40;73.70;;;;;;5078708;28;20012;-88
2021/06/22 01:34:26;;;;;;;31.90;12.20;;;23.40;73.90;;;;;;5077852;28;20048;-87
2021/06/22 01:36:54;;;;;;;26.08;12.05;;;23.40;73.90;;;;;;5050248;28;20028;-89
2021/06/22 01:39:20;;;;;;;30.30;12.50;;;23.40;74.00;;;;;;5088189;28;20040;-86
2021/06/22 01:41:46;;;;;;;29.80;11.40;;;23.40;73.70;;;;;;5079090;28;20079;-88
2021/06/22 01:44:12;;;;;;;26.40;10.77;;;23.50;74.00;;;;;;5077684;28;20028;-88
2021/06/22 01:46:38;;;;;;;26.40;12.40;;;23.40;74.80;;;;;;5080140;28;20016;-89
2021/06/22 01:49:05;;;;;;;27.70;11.38;;;23.40;74.00;;;;;;5074583;28;20036;-88
2021/06/22 01:51:33;;;;;;;32.95;12.57;;;23.50;74.00;;;;;;5068283;28;20040;-88
2021/06/22 01:53:59;;;;;;;;;;;23.50;73.70;;;;;;5071791;28;20024;-89
2021/06/22 01:56:29;;;;;;;26.40;12.02;;;23.50;73.00;;;;;;5062102;28;19905;-88
2021/06/22 01:58:55;;;;;;;30.33;11.82;;;23.50;73.40;;;;;;5063290;28;20029;-90
2021/06/22 02:01:21;;;;;;;33.47;12.90;;;23.60;73.80;;;;;;5085831;28;20506;-89
2021/06/22 02:03:47;;;;;;;32.53;13.50;;;23.70;74.30;;;;;;5080936;28;20032;-89
2021/06/22 02:06:13;;;;;;;23.83;13.23;;;23.70;73.60;;;;;;5094966;28;20088;-89
2021/06/22 02:08:40;;;;;;;29.45;12.30;;;23.80;73.20;;;;;;5065621;28;20355;-89
2021/06/22 02:11:06;;;;;;;30.98;12.82;;;23.90;72.50;;;;;;5057953;28;20029;-89
2021/06/22 02:13:32;;;;;;;32.47;13.05;;;23.90;72.60;;;;;;5072131;28;20077;-88
2021/06/22 02:15:58;;;;;;;38.92;13.18;;;24.00;72.70;;;;;;5096315;28;20032;-89
2021/06/22 02:18:27;;;;;;;28.15;12.43;;;24.10;72.50;;;;;;5092454;28;20024;-89
2021/06/22 02:20:54;;;;;;;23.63;12.77;;;24.20;72.10;;;;;;5064005;28;20090;-90
2021/06/22 02:23:20;;;;;;;29.10;13.27;;;24.20;71.70;;;;;;5073451;28;20084;-90
2021/06/22 02:25:46;;;;;;;24.13;13.83;;;24.30;71.00;;;;;;5081191;28;20020;-91
2021/06/22 02:28:19;;;;;;;34.05;12.90;;;24.30;71.40;;;;;;5083785;28;20020;-92
2021/06/22 02:30:47;;;;;;;27.77;12.43;;;24.40;71.30;;;;;;5070745;28;20028;-91
2021/06/22 02:33:13;;;;;;;25.85;12.27;;;24.50;70.10;;;;;;5061883;28;20024;-93
2021/06/22 02:35:39;;;;;;;26.98;12.23;;;24.50;70.40;;;;;;5058373;28;20047;-91
2021/06/22 02:38:06;;;;;;;33.05;14.32;;;24.60;70.80;;;;;;5079339;28;20021;-91
2021/06/22 02:40:32;;;;;;;24.27;12.50;;;24.60;70.10;;;;;;5051884;28;20041;-93
2021/06/22 02:42:58;;;;;;;25.85;13.02;;;24.60;70.00;;;;;;5075744;28;20480;-89
2021/06/22 02:45:24;;;;;;;30.17;13.10;;;24.70;70.20;;;;;;5055753;28;20063;-88
2021/06/22 02:47:50;;;;;;;27.33;13.35;;;24.70;69.50;;;;;;5027595;28;20041;-91
2021/06/22 02:50:18;;;;;;;27.23;11.40;;;24.80;69.20;;;;;;5019270;28;20025;-91
2021/06/22 02:52:44;;;;;;;24.70;13.30;;;24.90;69.50;;;;;;5019458;28;20077;-90
2021/06/22 02:55:18;;;;;;;25.98;12.75;;;24.90;68.60;;;;;;5019281;28;20032;-90
2021/06/22 02:57:49;;;;;;;22.67;11.27;;;25.00;68.30;;;;;;5037471;28;20433;-88
2021/06/22 03:00:20;;;;;;;28.17;11.68;;;25.10;68.40;;;;;;5050525;28;20061;-86
2021/06/22 03:02:46;;;;;;;26.33;12.95;;;25.20;67.90;;;;;;5039309;28;20080;-84
2021/06/22 03:05:13;;;;;;;30.30;12.50;;;25.30;66.20;;;;;;5038891;28;20494;-90
2021/06/22 03:07:39;;;;;;;23.67;11.82;;;25.50;66.60;;;;;;5040116;28;20053;-91
2021/06/22 03:10:11;;;;;;;27.52;12.13;;;25.60;66.90;;;;;;5038890;28;20013;-89
2021/06/22 03:12:37;;;;;;;23.05;11.77;;;25.80;65.10;;;;;;5021837;28;20017;-89
2021/06/22 03:15:08;;;;;;;28.85;12.13;;;26.00;64.70;;;;;;5038362;28;20025;-90
2021/06/22 03:17:34;;;;;;;23.83;11.43;;;26.20;64.40;;;;;;5072471;28;20033;-91
2021/06/22 03:20:03;;;;;;;15.68;11.35;;;26.20;63.90;;;;;;5077051;28;20035;-90
2021/06/22 03:22:28;;;;;;;26.08;11.35;;;26.30;63.80;;;;;;5078888;28;20028;-91
2021/06/22 03:24:56;;;;;;;25.92;12.07;;;26.40;63.50;;;;;;5063855;28;20025;-92
2021/06/22 03:27:22;;;;;;;20.60;11.02;;;26.50;64.00;;;;;;5062485;28;20434;-92
2021/06/22 03:29:57;;;;;;;22.40;11.63;;;26.50;63.00;;;;;;5066073;28;20027;-93
2021/06/22 03:32:27;;;;;;;22.38;11.50;;;26.50;62.80;;;;;;5073457;28;20036;-93
2021/06/22 03:34:54;;;;;;;24.60;11.23;;;26.60;63.00;;;;;;5065341;28;20107;-93
2021/06/22 03:37:20;;;;;;;16.95;10.00;;;26.70;62.20;;;;;;5026512;28;20120;-93
2021/06/22 03:39:47;;;;;;;18.13;9.52;;;26.70;61.30;;;;;;5035189;28;20057;-93
2021/06/22 03:42:14;;;;;;;21.38;12.02;;;26.80;61.40;;;;;;5011747;28;20210;-93
2021/06/22 03:44:40;;;;;;;25.10;11.00;;;26.80;61.10;;;;;;5025896;28;20034;-93
2021/06/22 03:47:06;;;;;;;28.52;11.00;;;26.90;60.50;;;;;;5018270;28;20057;-88
2021/06/22 03:49:34;;;;;;;22.98;11.10;;;27.00;62.30;;;;;;5010754;28;20026;-90
2021/06/22 03:52:00;;;;;;;27.58;10.00;;;27.00;60.70;;;;;;5020288;28;20026;-90
2021/06/22 03:54:26;;;;;;;25.52;10.50;;;27.00;60.30;;;;;;5021609;28;20037;-91
2021/06/22 03:56:52;;;;;;;14.73;8.55;;;27.10;60.50;;;;;;5018442;28;20090;-92
2021/06/22 03:59:18;;;;;;;24.88;9.25;;;27.10;59.40;;;;;;5039095;28;20021;-89
2021/06/22 04:01:44;;;;;;;23.50;10.48;;;27.10;59.00;;;;;;5020452;28;20058;-92
2021/06/22 04:04:10;;;;;;;27.23;10.02;;;27.10;59.60;;;;;;5026774;28;20065;-87
2021/06/22 04:06:36;;;;;;;16.98;9.13;;;27.20;58.70;;;;;;5008560;28;20033;-89
2021/06/22 04:09:02;;;;;;;22.50;9.02;;;27.20;58.60;;;;;;5023636;28;20065;-87
2021/06/22 04:11:29;;;;;;;18.15;8.80;;;27.20;58.10;;;;;;5015812;28;20072;-89
2021/06/22 04:13:54;;;;;;;20.92;9.25;;;27.30;57.70;;;;;;5018549;28;20030;-91
2021/06/22 04:16:20;;;;;;;21.48;9.68;;;27.40;58.00;;;;;;5038233;28;20054;-91
2021/06/22 04:18:46;;;;;;;18.90;8.55;;;27.50;58.70;;;;;;5070305;28;20021;-91
2021/06/22 04:21:13;;;;;;;15.13;9.38;;;27.60;58.60;;;;;;5074001;28;20040;-90
2021/06/22 04:23:38;;;;;;;16.13;8.18;;;27.80;57.30;;;;;;5054491;28;20128;-89
2021/06/22 04:26:04;;;;;;;18.67;8.68;;;27.80;56.70;;;;;;5066441;28;20013;-91
2021/06/22 04:28:30;;;;;;;14.73;6.88;;;27.90;56.30;;;;;;5065543;28;20025;-90
2021/06/22 04:30:56;;;;;;;15.35;6.68;;;28.00;55.60;;;;;;5072671;28;20051;-90
2021/06/22 04:33:23;;;;;;;14.02;6.88;;;28.20;53.90;;;;;;5071996;28;20029;-89
2021/06/22 04:35:49;;;;;;;10.73;5.47;;;28.20;53.80;;;;;;5064774;28;20029;-89
2021/06/22 04:38:15;;;;;;;16.38;6.65;;;28.30;52.40;;;;;;5064676;28;20396;-91
2021/06/22 04:40:42;;;;;;;13.20;6.25;;;28.30;53.00;;;;;;5073972;28;20031;-87
2021/06/22 04:43:08;;;;;;;16.02;5.88;;;28.40;53.20;;;;;;5068012;28;20037;-84
2021/06/22 04:45:35;;;;;;;17.40;6.38;;;28.40;53.20;;;;;;5108366;28;20024;-88
2021/06/22 04:48:01;;;;;;;10.40;6.10;;;28.50;52.50;;;;;;5081378;28;20020;-90
2021/06/22 04:50:27;;;;;;;13.25;5.15;;;28.60;51.70;;;;;;5079628;28;20026;-89
2021/06/22 04:52:54;;;;;;;11.63;5.97;;;28.60;50.90;;;;;;5080629;28;20020;-88
2021/06/22 04:55:24;;;;;;;15.97;5.00;;;28.60;50.80;;;;;;5079524;28;20021;-89
2021/06/22 04:57:50;;;;;;;8.52;4.22;;;28.50;50.60;;;;;;5060621;28;20277;-89
2021/06/22 05:00:17;;;;;;;11.90;5.22;;;28.60;50.50;;;;;;5061664;28;20028;-87
2021/06/22 05:02:43;;;;;;;11.90;5.15;;;28.70;50.50;;;;;;5044390;28;20036;-90
2021/06/22 05:05:11;;;;;;;11.82;4.85;;;28.80;50.80;;;;;;5060580;28;20115;-90
2021/06/22 05:07:38;;;;;;;9.38;5.00;;;29.00;50.70;;;;;;5065934;28;20035;-88
2021/06/22 05:10:05;;;;;;;10.68;4.88;;;29.10;50.10;;;;;;5066431;28;20029;-89
2021/06/22 05:12:31;;;;;;;11.88;5.18;;;29.30;49.40;;;;;;5067639;28;20037;-87
2021/06/22 05:14:56;;;;;;;12.85;4.95;;;29.40;49.80;;;;;;5080284;28;20114;-89
2021/06/22 05:17:22;;;;;;;12.65;4.82;;;29.80;48.60;;;;;;5086153;28;20033;-89
2021/06/22 05:19:49;;;;;;;12.63;4.70;;;;;;;;;;5059465;28;20027;-86
2021/06/22 05:22:16;;;;;;;7.85;4.57;;;;;;;;;;5080849;28;20130;-90
2021/06/22 05:24:43;;;;;;;18.50;5.00;;;;;;;;;;5081467;28;20051;-90
2021/06/22 05:27:10;;;;;;;13.07;4.55;;;;;;;;;;5061407;28;20035;-87
2021/06/22 05:29:37;;;;;;;18.17;5.40;;;;;;;;;;5084535;28;20024;-90
2021/06/22 05:32:03;;;;;;;8.38;4.38;;;;;;;;;;5083029;28;20032;-93
2021/06/22 05:34:53;;;;;;;10.40;5.65;;;36.40;39.80;;;;;;5083949;28;20025;-93
2021/06/22 05:37:23;;;;;;;11.90;5.93;;;36.40;38.20;;;;;;5048031;28;20088;-93
2021/06/22 05:39:49;;;;;;;17.50;4.97;;;36.50;37.60;;;;;;5068991;28;20053;-93
2021/06/22 05:42:16;;;;;;;12.25;5.32;;;36.30;37.90;;;;;;5063574;28;20057;-90
2021/06/22 05:44:42;;;;;;;12.80;5.23;;;36.80;37.60;;;;;;5063351;28;20021;-93
2021/06/22 05:47:08;;;;;;;20.63;6.68;;;37.20;36.80;;;;;;5065662;28;20265;-90
2021/06/22 05:49:34;;;;;;;11.95;4.95;;;38.00;37.10;;;;;;5042909;28;20025;-90
2021/06/22 05:52:02;;;;;;;13.30;4.75;;;38.30;35.60;;;;;;5063187;28;20017;-90
2021/06/22 05:54:28;;;;;;;13.18;5.25;;;38.70;35.50;;;;;;5070098;28;20044;-89
2021/06/22 05:56:54;;;;;;;15.27;5.05;;;39.30;35.30;;;;;;5068261;28;20017;-90
2021/06/22 05:59:21;;;;;;;12.95;4.90;;;39.80;34.20;;;;;;5044538;28;20096;-89
2021/06/22 06:01:47;;;;;;;17.05;6.30;;;40.20;33.60;;;;;;5049313;28;20025;-91
2021/06/22 06:04:13;;;;;;;14.05;5.43;;;40.50;33.20;;;;;;5068506;28;20029;-91
2021/06/22 06:06:39;;;;;;;15.00;5.38;;;41.00;33.20;;;;;;5065622;28;20493;-91
2021/06/22 06:09:05;;;;;;;16.42;5.43;;;41.40;32.50;;;;;;5069820;28;20021;-90
2021/06/22 06:11:31;;;;;;;12.43;4.97;;;41.80;31.90;;;;;;5066722;28;20566;-86
2021/06/22 06:13:57;;;;;;;14.45;5.13;;;42.00;31.50;;;;;;5050454;28;20020;-92
2021/06/22 06:16:24;;;;;;;15.85;5.78;;;41.90;32.00;;;;;;5062065;28;20045;-92
2021/06/22 06:18:50;;;;;;;15.23;5.68;;;42.40;31.50;;;;;;5035677;28;20028;-93
2021/06/22 06:21:15;;;;;;;12.20;4.80;;;43.00;31.30;;;;;;5018570;28;20029;-93
2021/06/22 06:23:43;;;;;;;12.98;4.90;;;43.10;30.70;;;;;;5050130;28;20043;-93
2021/06/22 06:26:11;;;;;;;12.60;5.15;;;42.70;30.00;;;;;;5049066;28;20490;-86
2021/06/22 06:28:49;;;;;;;12.77;5.07;;;42.10;30.80;;;;;;5067918;28;20017;-86
2021/06/22 06:31:24;;;;;;;13.27;5.73;;;42.80;31.10;;;;;;5171188;27;205692;-88
2021/06/22 06:33:52;;;;;;;;;;;44.00;30.30;;;;;;5157632;27;20455;-86
2021/06/22 06:36:18;;;;;;;15.23;4.57;;;44.40;31.10;;;;;;5156954;27;19944;-88
2021/06/22 06:38:44;;;;;;;14.43;5.32;;;45.10;29.00;;;;;;5139567;27;20076;-90
2021/06/22 06:41:10;;;;;;;16.70;4.85;;;45.60;29.10;;;;;;5146032;27;20026;-93
2021/06/22 06:43:40;;;;;;;15.98;4.72;;;45.60;29.60;;;;;;5162346;27;20011;-94
2021/06/22 06:46:15;;;;;;;13.77;4.40;;;45.80;28.80;;;;;;5159533;27;20023;-94
2021/06/22 06:48:43;;;;;;;11.10;4.00;;;46.60;28.20;;;;;;5153333;27;20033;-91
2021/06/22 06:51:13;;;;;;;12.10;3.80;;;47.30;27.70;;;;;;5162877;27;20051;-91
2021/06/22 06:53:39;;;;;;;10.55;5.25;;;47.40;27.50;;;;;;5164124;27;20019;-90
2021/06/22 06:56:05;;;;;;;14.38;4.47;;;47.70;27.20;;;;;;5151164;27;20023;-88
2021/06/22 06:58:31;;;;;;;12.63;4.82;;;47.90;27.70;;;;;;5153616;27;20051;-90
2021/06/22 07:00:57;;;;;;;12.77;4.68;;;48.20;26.90;;;;;;5155483;27;20007;-91
2021/06/22 07:03:23;;;;;;;16.13;5.40;;;48.40;26.50;;;;;;5154860;27;20027;-92
2021/06/22 07:05:49;;;;;;;6.88;3.75;;;48.50;26.80;;;;;;5145288;27;20444;-91
2021/06/22 07:08:15;;;;;;;11.35;4.18;;;48.10;26.30;;;;;;5142618;28;20019;-91
2021/06/22 07:10:44;;;;;;;12.48;4.78;;;46.00;27.10;;;;;;5148056;22;20044;-92
2021/06/22 07:13:15;;;;;;;14.02;4.95;;;45.30;27.60;;;;;;5073015;28;20057;-88
2021/06/22 07:15:41;;;;;;;14.82;4.00;;;45.90;27.70;;;;;;5065410;28;20082;-85
2021/06/22 07:18:07;;;;;;;9.57;3.90;;;46.30;27.20;;;;;;5051252;28;20421;-85
2021/06/22 07:20:33;;;;;;;10.27;2.88;;;47.30;27.30;;;;;;5054438;28;20021;-85
2021/06/22 07:23:02;;;;;;;5.30;2.20;;;48.10;26.40;;;;;;5052794;28;20067;-81
2021/06/22 07:25:28;;;;;;;11.70;2.75;;;48.80;26.10;;;;;;5050569;28;20040;-88
2021/06/22 07:27:56;;;;;;;9.68;2.92;;;49.40;26.10;;;;;;5049794;28;20024;-86
2021/06/22 07:30:23;;;;;;;11.70;2.90;;;49.60;25.80;;;;;;5051525;28;20477;-88
2021/06/22 07:32:50;;;;;;;7.13;2.70;;;49.00;25.70;;;;;;5056566;28;20032;-83
2021/06/22 07:35:16;;;;;;;9.60;2.80;;;48.30;25.80;;;;;;5043732;28;20441;-84
2021/06/22 07:37:43;;;;;;;10.60;2.90;;;48.40;26.10;;;;;;5054807;28;20029;-84
2021/06/22 07:40:10;;;;;;;17.40;3.53;;;47.10;26.10;;;;;;5050933;28;20097;-84
2021/06/22 07:42:36;;;;;;;11.57;2.72;;;45.40;27.10;;;;;;5049504;28;20025;-88
2021/06/22 07:45:02;;;;;;;15.50;3.15;;;46.00;27.40;;;;;;5037382;28;20026;-87
2021/06/22 07:47:28;;;;;;;13.27;2.97;;;47.50;26.90;;;;;;5030191;28;20483;-86
2021/06/22 07:49:53;;;;;;;8.88;2.80;;;48.60;26.40;;;;;;5043574;28;20045;-85
2021/06/22 07:52:20;;;;;;;10.50;2.75;;;49.50;25.90;;;;;;5048641;28;20021;-83
2021/06/22 07:54:47;;;;;;;9.18;3.38;;;49.10;25.70;;;;;;5043734;28;20021;-83
2021/06/22 07:57:15;;;;;;;13.80;3.40;;;49.50;25.80;;;;;;5035341;28;20029;-90
2021/06/22 07:59:42;;;;;;;15.00;3.33;;;50.10;25.50;;;;;;5032900;28;20024;-86
2021/06/22 08:02:08;;;;;;;6.47;2.53;;;50.70;25.70;;;;;;5043670;28;20029;-85
2021/06/22 08:04:34;;;;;;;10.40;3.03;;;50.60;25.30;;;;;;5037977;28;20019;-87
2021/06/22 08:07:01;;;;;;;13.45;3.28;;;50.30;25.30;;;;;;5036917;28;20025;-85
2021/06/22 08:09:26;;;;;;;10.18;3.85;;;50.50;25.30;;;;;;5036979;28;20128;-83
2021/06/22 08:11:52;;;;;;;7.80;3.22;;;50.20;25.50;;;;;;5037237;28;20040;-86
2021/06/22 08:14:18;;;;;;;14.75;3.45;;;50.30;25.60;;;;;;5030111;28;20461;-91
2021/06/22 08:16:44;;;;;;;16.17;3.75;;;50.80;25.30;;;;;;5039216;28;20109;-88
2021/06/22 08:19:11;;;;;;;11.15;3.33;;;51.30;25.40;;;;;;5038524;28;20048;-86
2021/06/22 08:21:37;;;;;;;8.82;3.13;;;51.70;25.00;;;;;;5031923;28;20033;-88
2021/06/22 08:24:04;;;;;;;13.27;3.33;;;51.70;25.00;;;;;;5039283;28;20033;-91
2021/06/22 08:26:30;;;;;;;13.93;3.28;;;51.40;24.90;;;;;;5045355;28;20068;-84
2021/06/22 08:28:56;;;;;;;9.23;2.95;;;51.40;25.10;;;;;;5050034;28;20025;-90
2021/06/22 08:31:23;;;;;;;9.93;2.92;;;49.60;25.80;;;;;;5039638;28;20056;-91
2021/06/22 08:33:49;;;;;;;5.88;3.28;;;49.40;25.70;;;;;;5037132;28;20033;-85
2021/06/22 08:36:15;;;;;;;11.38;3.30;;;49.80;25.50;;;;;;5037648;28;20025;-83
2021/06/22 08:38:41;;;;;;;19.10;3.60;;;48.80;25.90;;;;;;5038682;28;20786;-89
2021/06/22 08:41:08;;;;;;;16.98;3.72;;;49.00;26.00;;;;;;5038166;28;20088;-88
2021/06/22 08:43:35;;;;;;;8.23;3.38;;;49.10;26.00;;;;;;5041654;28;20077;-88
2021/06/22 08:46:05;;;;;;;10.02;2.78;;;49.70;25.60;;;;;;5043669;28;20033;-89
2021/06/22 08:48:32;;;;;;;14.60;4.13;;;47.50;25.80;;;;;;5051358;28;20029;-90
2021/06/22 08:50:58;;;;;;;13.35;3.45;;;46.40;26.90;;;;;;5041759;28;20536;-89
2021/06/22 08:53:24;;;;;;;17.95;3.83;;;46.00;26.70;;;;;;5038321;28;20060;-86
2021/06/22 08:55:50;;;;;;;10.15;3.35;;;46.60;27.10;;;;;;5044393;28;20029;-87
2021/06/22 08:58:18;;;;;;;9.75;3.25;;;47.30;26.40;;;;;;5038235;28;20418;-86
2021/06/22 09:00:49;;;;;;;13.90;3.35;;;46.80;26.30;;;;;;5038627;28;20017;-84
2021/06/22 09:03:26;;;;;;;15.73;3.35;;;46.00;26.50;;;;;;5035986;28;20029;-87
2021/06/22 09:05:55;;;;;;;12.02;4.03;;;46.90;26.20;;;;;;5040458;28;20025;-86
2021/06/22 09:08:25;;;;;;;10.75;3.30;;;47.90;26.00;;;;;;5043973;28;20492;-90
2021/06/22 09:10:53;;;;;;;12.15;3.20;;;49.20;25.10;;;;;;5026084;28;20049;-89
2021/06/22 09:13:22;;;;;;;15.05;3.10;;;49.50;24.80;;;;;;5033969;28;20026;-85
2021/06/22 09:15:50;;;;;;;14.27;3.75;;;50.10;25.00;;;;;;5034212;28;20032;-83
2021/06/22 09:18:28;;;;;;;10.07;3.05;;;50.80;25.00;;;;;;5038284;28;20108;-84
2021/06/22 09:21:04;;;;;;;11.52;2.83;;;51.50;24.80;;;;;;5051564;28;20046;-85
2021/06/22 09:23:33;;;;;;;13.55;3.25;;;51.60;23.90;;;;;;5032001;28;20053;-86
2021/06/22 09:26:00;;;;;;;11.25;3.05;;;50.30;23.90;;;;;;5024998;28;20013;-84
2021/06/22 09:28:31;;;;;;;9.65;3.10;;;50.40;24.00;;;;;;5025297;28;20029;-87
2021/06/22 09:31:05;;;;;;;17.00;2.90;;;50.40;24.10;;;;;;5033008;28;20132;-86
2021/06/22 09:33:34;;;;;;;11.03;3.40;;;50.10;24.00;;;;;;5030916;28;20099;-84
2021/06/22 09:36:04;;;;;;;10.50;2.95;;;49.50;23.90;;;;;;5040598;28;20029;-84
2021/06/22 09:38:34;;;;;;;17.33;3.95;;;48.80;24.30;;;;;;5040234;28;20095;-85
2021/06/22 09:41:09;;;;;;;18.50;6.80;;;49.20;24.40;;;;;;5049476;28;20044;-83
2021/06/22 09:43:36;;;;;;;16.08;3.65;;;49.90;24.30;;;;;;5045207;28;20037;-86
2021/06/22 09:46:03;;;;;;;12.25;3.30;;;49.50;24.10;;;;;;5054286;28;20034;-88
2021/06/22 09:48:28;;;;;;;11.95;3.45;;;49.70;24.30;;;;;;5039080;28;20013;-83
2021/06/22 09:50:54;;;;;;;16.08;3.42;;;49.70;24.00;;;;;;5047479;28;20045;-84
2021/06/22 09:53:28;;;;;;;8.23;3.28;;;50.10;24.20;;;;;;5040172;28;20017;-87
2021/06/22 09:55:56;;;;;;;13.33;3.00;;;49.70;23.90;;;;;;5036383;28;20025;-84
2021/06/22 09:58:42;;;;;;;8.32;2.97;;;47.70;24.30;;;;;;5036710;28;20109;-86
2021/06/22 10:01:35;;;;;;;14.13;3.00;;;45.90;25.10;;;;;;5033005;28;20021;-86
2021/06/22 10:04:17;;;;;;;14.70;3.92;;;45.30;25.90;;;;;;5028732;28;20111;-88
2021/06/22 10:06:54;;;;;;;16.48;3.60;;;45.60;25.90;;;;;;5031434;28;20033;-87
2021/06/22 10:09:22;;;;;;;20.75;3.58;;;45.50;25.50;;;;;;5044476;28;20026;-89
2021/06/22 10:11:55;;;;;;;14.48;3.65;;;45.00;25.70;;;;;;5033114;28;20083;-84
2021/06/22 10:14:26;;;;;;;13.68;3.63;;;45.90;25.80;;;;;;5033935;28;20039;-86
2021/06/22 10:16:53;;;;;;;14.07;4.50;;;46.90;25.70;;;;;;5036104;28;20057;-86
2021/06/22 10:19:22;;;;;;;13.77;3.47;;;47.80;25.30;;;;;;5033933;28;20021;-87
2021/06/22 10:21:49;;;;;;;15.68;3.38;;;48.40;25.10;;;;;;5036665;28;20044;-87
2021/06/22 10:24:15;;;;;;;16.88;3.75;;;48.00;24.20;;;;;;5036107;28;20104;-85
2021/06/22 10:26:42;;;;;;;18.08;4.40;;;47.30;24.60;;;;;;5036566;28;20574;-89
2021/06/22 10:29:07;;;;;;;14.52;4.40;;;47.60;24.60;;;;;;5039019;28;20487;-86
2021/06/22 10:31:35;;;;;;;20.90;4.60;;;47.80;24.60;;;;;;5036516;28;20029;-85
2021/06/22 10:34:01;;;;;;;19.33;4.03;;;46.00;24.70;;;;;;5038219;28;20033;-85
2021/06/22 10:36:39;;;;;;;;;;;44.20;25.90;;;;;;5037794;28;20056;-88
2021/06/22 10:39:14;;;;;;;20.25;4.68;;;42.00;26.10;;;;;;5034714;28;19905;-84
2021/06/22 10:41:45;;;;;;;16.02;4.40;;;41.20;28.20;;;;;;5034299;28;20043;-83
2021/06/22 10:44:44;;;;;;;17.55;4.55;;;40.10;28.80;;;;;;5033324;28;20093;-85
2021/06/22 10:47:22;;;;;;;17.67;4.55;;;38.80;29.20;;;;;;5023769;28;20037;-86
2021/06/22 10:50:09;;;;;;;14.82;5.00;;;38.20;30.70;;;;;;5034065;28;20032;-85
2021/06/22 10:52:44;;;;;;;17.10;5.28;;;37.70;31.70;;;;;;5034262;28;20030;-86
2021/06/22 10:55:20;;;;;;;17.67;5.13;;;37.30;32.40;;;;;;5035688;28;20431;-85
2021/06/22 10:58:12;;;;;;;17.03;4.83;;;37.00;32.80;;;;;;5034636;28;20038;-83
2021/06/22 11:00:59;;;;;;;21.30;5.22;;;36.50;33.40;;;;;;5022898;28;20427;-85
2021/06/22 11:03:24;;;;;;;16.05;4.65;;;36.30;33.40;;;;;;5033542;28;20021;-86
2021/06/22 11:06:13;;;;;;;17.47;5.50;;;36.10;33.70;;;;;;5035725;28;20032;-81
2021/06/22 11:08:41;;;;;;;11.57;4.78;;;36.10;34.50;;;;;;5020418;28;20483;-91
2021/06/22 11:11:07;;;;;;;17.77;5.38;;;35.90;34.50;;;;;;5041904;28;20395;-91
2021/06/22 11:13:51;;;;;;;14.13;5.07;;;35.90;35.00;;;;;;5038384;28;20029;-87
2021/06/22 11:16:16;;;;;;;16.38;4.93;;;35.90;35.30;;;;;;5029156;28;20030;-86
2021/06/22 11:21:24;;;;;;;17.75;5.28;;;35.80;35.00;;;;;;5047000;28;20033;-86
2021/06/22 11:24:12;;;;;;;15.95;4.68;;;35.70;35.30;;;;;;5038507;28;20534;-86
2021/06/22 11:26:42;;;;;;;18.95;4.90;;;35.50;35.30;;;;;;5036764;28;20056;-87
2021/06/22 11:29:21;;;;;;;16.08;5.18;;;35.30;34.80;;;;;;5036620;28;20025;-85
2021/06/22 11:31:50;;;;;;;21.13;6.15;;;35.10;35.70;;;;;;5041143;28;20431;-86
2021/06/22 11:34:23;;;;;;;22.75;6.22;;;35.10;36.80;;;;;;5037330;28;20033;-86
2021/06/22 11:36:54;;;;;;;19.48;5.80;;;35.10;36.90;;;;;;5041359;28;20018;-85
2021/06/22 11:39:22;;;;;;;20.00;5.40;;;35.10;35.90;;;;;;5046916;28;20017;-87
2021/06/22 11:42:14;;;;;;;22.77;6.57;;;34.90;37.00;;;;;;5055425;28;20029;-86
2021/06/22 11:44:57;;;;;;;20.17;6.20;;;34.80;36.90;;;;;;5040177;28;20032;-87
2021/06/22 11:47:25;;;;;;;15.43;5.85;;;34.80;36.80;;;;;;5056114;28;20068;-87
2021/06/22 11:49:57;;;;;;;18.65;6.30;;;34.90;37.10;;;;;;5049187;28;20037;-87
2021/06/22 11:52:34;;;;;;;16.60;5.55;;;34.80;37.10;;;;;;5039550;28;20123;-87
2021/06/22 11:55:03;;;;;;;20.15;5.38;;;34.80;36.40;;;;;;5042362;28;20100;-84
2021/06/22 11:57:34;;;;;;;16.70;5.03;;;34.60;36.40;;;;;;5039523;28;20463;-85
2021/06/22 12:00:06;;;;;;;17.05;5.30;;;;;;;;;;5029134;28;20552;-84
2021/06/22 12:02:46;;;;;;;25.52;6.90;;;34.10;35.60;;;;;;5039399;28;20538;-86
2021/06/22 12:05:14;;;;;;;23.27;5.88;;;34.10;36.60;;;;;;5044696;28;20018;-83
2021/06/22 12:07:51;;;;;;;14.93;4.82;;;34.00;36.50;;;;;;5047657;28;20036;-84
2021/06/22 12:10:18;;;;;;;17.85;5.95;;;34.00;35.70;;;;;;5040035;28;20041;-84
2021/06/22 12:12:46;;;;;;;24.95;6.60;;;33.80;36.00;;;;;;5058292;28;20017;-85
2021/06/22 12:15:13;;;;;;;26.15;6.93;;;33.80;36.90;;;;;;5056096;28;20113;-85
2021/06/22 12:17:39;;;;;;;24.35;6.00;;;33.90;36.90;;;;;;5053184;28;20021;-83
2021/06/22 12:20:27;;;;;;;19.50;5.32;;;34.00;36.20;;;;;;5039170;28;20037;-85
2021/06/22 12:23:09;;;;;;;23.73;7.68;;;33.90;35.90;;;;;;5037775;28;20022;-89
2021/06/22 12:25:46;;;;;;;16.90;5.60;;;33.90;36.50;;;;;;5035915;28;20022;-88
2021/06/22 12:28:13;;;;;;;20.23;6.22;;;34.10;36.30;;;;;;5037517;28;20036;-87
2021/06/22 12:30:47;;;;;;;20.00;5.40;;;34.20;36.50;;;;;;5038891;28;20053;-89
2021/06/22 12:33:20;;;;;;;20.58;7.18;;;34.30;36.90;;;;;;5039174;28;20433;-88
2021/06/22 12:35:48;;;;;;;14.98;5.22;;;34.20;37.20;;;;;;5038897;28;20025;-87
2021/06/22 12:38:16;;;;;;;24.83;5.38;;;34.00;37.10;;;;;;5039559;28;20096;-90
2021/06/22 12:40:44;;;;;;;16.00;5.47;;;33.90;37.30;;;;;;5039256;28;20021;-90
2021/06/22 12:43:10;;;;;;;20.50;5.75;;;33.70;37.90;;;;;;5039056;28;20097;-89
2021/06/22 12:45:36;;;;;;;15.10;5.15;;;33.70;37.80;;;;;;5039792;28;20025;-87
2021/06/22 12:48:03;;;;;;;15.23;4.30;;;33.80;37.50;;;;;;5043036;28;20049;-88